Aérodrome :
LOGIN :

S'inscrire | Disclaimer

   EN    FR    IT 

 










Légende :    VFR   VFR Marginal   IFR   IFR Intensif   IFR Très Intensif
Visi : 
Plafond : 
>= 8 km
>= 3000ft
5 à 8 km
1000 à 3000 ft
1500m à 5 km
500 à 1000 ft
800 à 1500m
200 à 500 ft
< 800m
< 200 ft
Symboles :   Orages  Brouillard  Fortes neiges  Fortes précipitations  Vent > 20 kt
SIGMETs :   Divers  Orages  Givrage  Turbulence  Onde Orograph.  Cendres Volcan.






- Altitude de l'aérodrome : 479 ft
- Code IATA : KEV


EFHA - Halli

DERNIER METAR :
  • 210320Z AUTO 17014G24KT 140V200 9999 -SHSN OVC013 01/M01 Q0999

METARs EXPIRÉS :
  • 210250Z AUTO 17012KT 9999 -SHRA OVC012 01/M01 Q1000
  • 210220Z AUTO 17012KT 9999 -SHRA OVC011 01/M01 Q1000
  • 210150Z AUTO 18011KT 150V210 9999 -SHSN OVC012 01/M01 Q1001
  • 210120Z AUTO 18013KT 150V210 9999 OVC011 01/M01 Q1001
  • 210050Z AUTO 18012KT 140V210 9999 OVC011 01/M01 Q1002

TAF TAF EFHA
Valide du 21 à 03h jusqu'au 21 à 12h UTC


210238Z 2103/2112 18012KT 9999 -RA OVC011
TEMPO 2103/2112 18015G25KT 2500 -SNRA BKN008



MET'MAP, la Météo Aéronautique d'un coup d'oeil ! - Copyright ORBIFLY Décembre 2007 - Disclaimer

ORBIFLY MET'MAP TEAM :

Programmation & Développement : Alexandra Zaïnal
Sur une idée originale de : Baudouin d'Aumeries
Assistance à la programmation : Marc-Olivier Méhu
Soutien technique & logistique : Manuel Goepfert

Contact : metmap@orbifly.com




SOURCES & CREDITS :

   NOAA